Time;durP1;ratioP1;P1;durP2;ratioP2;P2;SDS_P1;SDS_P2;PMS_P1;PMS_P2;Temp;Humidity;BMP_temperature;BMP_pressure;BME280_temperature;BME280_humidity;BME280_pressure;Samples;Min_cycle;Max_cycle;Signal;HPM_P1;HPM_P2
2021/06/25 00:00:06;;;;;;;2.00;1.90;;;;;;;18.80;86.96;98866.13;4861484;28;103763;-78
2021/06/25 00:02:34;;;;;;;3.20;2.40;;;;;;;18.66;86.90;98869.38;4863656;28;102995;-77
2021/06/25 00:05:03;;;;;;;2.45;2.22;;;;;;;18.67;86.72;98870.22;4862877;28;103354;-77
2021/06/25 00:07:31;;;;;;;2.20;1.90;;;;;;;18.67;86.95;98871.03;4846793;28;104266;-78
2021/06/25 00:09:59;;;;;;;3.47;2.17;;;;;;;18.67;86.68;98875.56;4855421;28;103685;-77
2021/06/25 00:12:27;;;;;;;2.10;1.90;;;;;;;18.59;86.64;98878.19;4863623;28;102573;-77
2021/06/25 00:14:55;;;;;;;2.42;2.10;;;;;;;18.59;86.45;98873.69;4863555;28;103381;-77
2021/06/25 00:17:25;;;;;;;2.63;2.13;;;;;;;18.50;86.23;98869.25;4834763;29;105944;-77
2021/06/25 00:19:53;;;;;;;1.88;1.77;;;;;;;18.44;86.44;98869.88;4854860;28;104504;-77
2021/06/25 00:22:21;;;;;;;2.70;2.15;;;;;;;18.36;86.19;98880.47;4856606;28;106668;-78
2021/06/25 00:24:49;;;;;;;1.80;1.70;;;;;;;18.39;86.51;98877.50;4852390;28;103477;-77
2021/06/25 00:27:17;;;;;;;2.38;2.28;;;;;;;18.17;86.86;98884.19;4862845;28;104417;-78
2021/06/25 00:29:45;;;;;;;3.60;2.00;;;;;;;18.10;87.16;98880.47;4858370;28;104887;-78
2021/06/25 00:32:13;;;;;;;4.82;2.20;;;;;;;18.02;87.68;98876.88;4863847;28;103351;-78
2021/06/25 00:34:42;;;;;;;2.03;1.73;;;;;;;18.13;88.04;98876.66;4836866;28;103300;-78
2021/06/25 00:37:10;;;;;;;1.70;1.45;;;;;;;18.12;88.19;98872.28;4860992;28;104501;-77
2021/06/25 00:39:38;;;;;;;2.00;1.90;;;;;;;18.16;88.08;98879.00;4856402;28;103785;-78
2021/06/25 00:42:08;;;;;;;2.50;2.30;;;;;;;18.13;88.51;98873.97;4846520;28;102955;-77
2021/06/25 00:44:39;;;;;;;2.10;1.90;;;;;;;18.24;88.07;98868.38;4846218;28;104519;-78
2021/06/25 00:47:08;;;;;;;2.10;1.90;;;;;;;18.23;88.29;98877.38;4851662;28;104477;-77
2021/06/25 00:49:36;;;;;;;2.10;1.70;;;;;;;18.36;86.78;98869.78;4862452;28;104414;-77
2021/06/25 00:52:05;;;;;;;1.60;1.50;;;;;;;18.41;87.28;98867.50;4862481;28;103493;-78
2021/06/25 00:54:34;;;;;;;1.70;1.60;;;;;;;18.30;87.90;98875.78;4862510;28;103430;-79
2021/06/25 00:57:03;;;;;;;3.40;1.88;;;;;;;18.35;87.36;98877.00;4851218;28;104395;-77
2021/06/25 00:59:33;;;;;;;1.55;1.45;;;;;;;18.25;88.36;98872.72;4845313;28;106854;-77
2021/06/25 01:02:01;;;;;;;1.70;1.60;;;;;;;18.30;87.57;98879.28;4858021;28;105454;-77
2021/06/25 01:04:29;;;;;;;1.77;1.67;;;;;;;18.31;88.10;98880.13;4846073;28;103114;-79
2021/06/25 01:06:57;;;;;;;2.45;1.98;;;;;;;18.13;88.76;98876.66;4862651;28;103944;-77
2021/06/25 01:09:28;;;;;;;1.80;1.55;;;;;;;18.26;89.01;98877.06;4860752;28;104403;-77
2021/06/25 01:11:56;;;;;;;2.95;1.90;;;;;;;18.19;89.26;98871.50;4853526;28;102573;-77
2021/06/25 01:14:24;;;;;;;3.80;1.80;;;;;;;18.36;88.56;98877.81;4865715;28;103744;-77
2021/06/25 01:16:52;;;;;;;1.70;1.60;;;;;;;18.43;88.58;98873.53;4866506;28;104389;-78
2021/06/25 01:19:20;;;;;;;1.38;1.27;;;;;;;18.38;88.90;98878.53;4858890;28;103255;-77
2021/06/25 01:21:50;;;;;;;1.60;1.50;;;;;;;18.37;88.65;98877.69;4849377;28;103034;-80
2021/06/25 01:24:18;;;;;;;1.73;1.50;;;;;;;18.39;88.98;98877.50;4863254;28;103794;-77
2021/06/25 01:26:45;;;;;;;3.45;2.15;;;;;;;18.24;89.18;98873.72;4867467;28;104326;-80
2021/06/25 01:29:13;;;;;;;4.65;2.50;;;;;;;18.07;90.51;98867.41;4885048;28;103060;-79
2021/06/25 01:31:41;;;;;;;1.77;1.65;;;;;;;18.11;90.00;98873.25;4886656;28;102425;-77
2021/06/25 01:34:10;;;;;;;1.85;1.70;;;;;;;17.97;90.97;98863.94;4859090;28;102677;-79
2021/06/25 01:36:38;;;;;;;1.67;1.58;;;;;;;18.07;90.54;98871.91;4863720;28;104398;-77
2021/06/25 01:39:08;;;;;;;2.65;1.45;;;;;;;18.13;89.84;98871.28;4866042;28;104329;-78
2021/06/25 01:41:40;;;;;;;2.13;1.90;;;;;;;18.00;90.65;98865.47;4844925;28;103121;-77
2021/06/25 01:44:09;;;;;;;1.73;1.50;;;;;;;18.16;89.82;98862.97;4865578;28;103148;-77
2021/06/25 01:46:37;;;;;;;2.03;1.67;;;;;;;18.12;90.31;98864.25;4864857;28;105706;-77
2021/06/25 01:49:05;;;;;;;3.70;2.50;;;;;;;18.10;90.25;98863.59;4861529;28;104224;-78
2021/06/25 01:51:33;;;;;;;2.08;1.98;;;;;;;18.01;90.63;98864.50;4864511;28;102750;-78
2021/06/25 01:54:01;;;;;;;2.67;2.35;;;;;;;18.06;89.96;98862.19;4863573;28;103279;-77
2021/06/25 01:56:30;;;;;;;3.90;1.92;;;;;;;18.20;89.01;98856.31;4865082;28;104272;-77
2021/06/25 01:58:58;;;;;;;1.80;1.70;;;;;;;18.14;89.91;98867.59;4865602;28;111147;-78
2021/06/25 02:01:26;;;;;;;4.00;2.40;;;;;;;18.17;89.51;98861.94;4850024;28;103274;-77
2021/06/25 02:03:58;;;;;;;3.30;2.63;;;;;;;17.92;90.89;98859.06;4861802;28;103586;-77
2021/06/25 02:06:26;;;;;;;2.38;2.10;;;;;;;17.90;90.96;98850.38;4848383;28;103912;-78
2021/06/25 02:08:54;;;;;;;3.25;2.53;;;;;;;17.78;91.47;98856.09;4863749;28;103611;-77
2021/06/25 02:11:23;;;;;;;2.95;2.28;;;;;;;17.81;91.09;98856.63;4861054;28;102664;-78
2021/06/25 02:13:52;;;;;;;2.40;2.20;;;;;;;17.90;90.70;98857.56;4863304;28;103262;-77
2021/06/25 02:16:20;;;;;;;3.05;2.85;;;;;;;17.78;91.17;98856.94;4862741;28;104928;-78
2021/06/25 02:18:48;;;;;;;3.10;2.80;;;;;;;17.68;91.42;98853.50;4862549;28;103883;-77
2021/06/25 02:21:16;;;;;;;3.25;2.72;;;;;;;17.72;91.55;98852.19;4859138;28;102663;-78
2021/06/25 02:23:44;;;;;;;3.28;2.47;;;;;;;17.87;90.95;98850.69;4852216;28;103045;-78
2021/06/25 02:26:12;;;;;;;1.88;1.77;;;;;;;17.95;90.14;98860.59;4847068;28;107263;-77
2021/06/25 02:28:40;;;;;;;3.30;2.13;;;;;;;17.93;90.86;98859.94;4853646;28;103291;-78
2021/06/25 02:31:09;;;;;;;3.40;2.63;;;;;;;17.98;90.19;98862.97;4836449;28;104159;-78
2021/06/25 02:33:37;;;;;;;3.33;3.03;;;;;;;17.90;90.76;98861.06;4864215;28;103238;-79
2021/06/25 02:36:06;;;;;;;3.33;3.03;;;;;;;17.98;90.29;98862.13;4864324;28;104396;-78
2021/06/25 02:38:34;;;;;;;2.55;2.35;;;;;;;18.01;89.75;98853.81;4861508;28;103911;-77
2021/06/25 02:41:02;;;;;;;2.67;2.47;;;;;;;18.08;89.62;98849.53;4863828;28;103186;-77
2021/06/25 02:43:30;;;;;;;3.53;3.22;;;;;;;18.05;89.74;98844.50;4864463;28;103079;-78
2021/06/25 02:45:58;;;;;;;2.55;2.35;;;;;;;18.03;89.70;98855.31;4863949;28;104557;-77
2021/06/25 02:48:28;;;;;;;2.80;2.60;;;;;;;17.90;90.86;98855.72;4863079;28;104788;-78
2021/06/25 02:50:56;;;;;;;2.72;2.30;;;;;;;17.94;90.06;98857.09;4864992;28;102585;-78
2021/06/25 02:53:24;;;;;;;3.75;3.53;;;;;;;17.84;90.46;98845.66;4856827;28;103305;-77
2021/06/25 02:55:52;;;;;;;4.25;3.17;;;;;;;17.67;91.78;98853.66;4862129;28;104194;-77
2021/06/25 02:58:20;;;;;;;3.35;3.10;;;;;;;17.65;91.99;98855.63;4848833;28;103725;-77
2021/06/25 03:00:49;;;;;;;3.50;3.05;;;;;;;17.82;90.48;98855.63;4864601;28;103004;-77
2021/06/25 03:03:17;;;;;;;3.38;3.08;;;;;;;17.88;89.88;98855.03;4863830;28;103049;-77
2021/06/25 03:05:47;;;;;;;3.10;2.90;;;;;;;17.68;91.00;98856.19;4846301;28;103381;-76
2021/06/25 03:08:15;;;;;;;3.35;3.15;;;;;;;17.62;90.83;98858.59;4864731;28;103366;-83
2021/06/25 03:10:46;;;;;;;3.40;2.90;;;;;;;17.67;90.09;98859.84;4861166;28;102743;-79
2021/06/25 03:13:14;;;;;;;2.65;2.45;;;;;;;17.66;90.57;98847.47;4860392;28;102882;-77
2021/06/25 03:20:16;;;;;;;3.42;2.53;;;;;;;17.65;88.87;98851.16;5079314;23;105151;-73
2021/06/25 03:22:45;;;;;;;2.63;2.42;;;;;;;17.48;89.04;98843.06;4822404;29;104665;-75
2021/06/25 03:25:14;;;;;;;2.10;2.00;;;;;;;17.63;88.08;98847.75;4825559;29;103418;-75
2021/06/25 05:30:32;;;;;;;2.70;2.30;;;;;;;17.17;100.00;98855.91;5031133;23;104675;-77
2021/06/25 05:33:03;;;;;;;3.63;2.60;;;;;;;16.48;100.00;98853.59;4723644;29;104046;-77
2021/06/25 05:35:32;;;;;;;4.43;3.20;;;;;;;16.28;100.00;98851.94;4747916;29;103327;-77
2021/06/25 05:38:01;;;;;;;4.90;3.17;;;;;;;16.13;100.00;98853.38;4761346;29;103748;-76
2021/06/25 05:40:29;;;;;;;4.10;3.60;;;;;;;16.07;100.00;98864.59;4755429;29;104381;-79
2021/06/25 05:42:59;;;;;;;4.38;3.22;;;;;;;16.40;100.00;98856.13;4774966;29;103282;-76
2021/06/25 05:45:30;;;;;;;3.70;3.40;;;;;;;16.45;100.00;98859.19;4755910;29;103350;-75
2021/06/25 05:48:01;;;;;;;3.97;2.97;;;;;;;16.52;100.00;98865.66;4762257;29;103902;-79
2021/06/25 05:51:06;;;;;;;3.47;2.80;;;;;;;16.90;100.00;98854.03;4748056;29;103282;-79
2021/06/25 06:16:39;;;;;;;2.67;1.92;;;;;;;17.95;100.00;98880.16;4780118;29;102565;-78
2021/06/25 08:46:20;;;;;;;2.20;2.00;;;;;;;18.50;94.41;98902.22;4800851;29;102750;-77
2021/06/25 08:48:49;;;;;;;1.90;1.77;;;;;;;18.11;95.75;98910.69;4779674;29;102738;-77
2021/06/25 08:51:25;;;;;;;2.33;2.20;;;;;;;18.18;95.11;98901.94;4790379;29;103918;-76
2021/06/25 08:53:53;;;;;;;1.80;1.60;;;;;;;18.15;96.52;98912.06;4761418;29;103213;-77
2021/06/25 08:56:31;;;;;;;1.90;1.80;;;;;;;18.26;95.95;98910.00;4787975;29;102729;-77
2021/06/25 08:59:00;;;;;;;2.30;2.00;;;;;;;17.94;97.30;98921.22;4798174;29;102695;-77
2021/06/25 09:01:58;;;;;;;2.33;1.90;;;;;;;18.16;97.12;98913.78;4811872;29;102937;-78
2021/06/25 09:04:35;;;;;;;2.22;2.03;;;;;;;18.15;98.43;98920.09;4801960;29;103363;-77
2021/06/25 09:08:01;;;;;;;2.00;1.85;;;;;;;18.11;96.66;98922.22;4793292;29;102580;-77
2021/06/25 09:10:33;;;;;;;1.83;1.73;;;;;;;17.73;98.24;98927.84;4791585;29;102656;-77
2021/06/25 09:13:07;;;;;;;1.55;1.45;;;;;;;18.00;98.31;98926.97;4783635;29;104355;-77
2021/06/25 09:15:51;;;;;;;1.60;1.50;;;;;;;17.79;100.00;98927.25;4736926;29;103872;-77
2021/06/25 09:18:58;;;;;;;2.05;1.80;;;;;;;17.91;99.26;98926.03;4737943;29;102721;-78
2021/06/25 09:22:30;;;;;;;2.78;2.20;;;;;;;17.75;100.00;98926.72;4738375;29;102895;-78
2021/06/25 09:25:07;;;;;;;3.10;2.08;;;;;;;17.83;100.00;98932.16;4737199;29;104683;-78
2021/06/25 09:28:11;;;;;;;3.28;2.40;;;;;;;17.92;100.00;98922.38;4737802;29;103751;-77
2021/06/25 09:30:49;;;;;;;3.58;2.97;;;;;;;17.78;100.00;98926.41;4738251;29;102707;-77
2021/06/25 09:33:17;;;;;;;5.88;4.15;;;;;;;17.59;100.00;98928.38;4753241;29;103424;-74
2021/06/25 09:35:52;;;;;;;4.68;4.28;;;;;;;17.73;100.00;98922.50;4793013;29;104056;-74
2021/06/25 09:38:33;;;;;;;5.10;4.60;;;;;;;17.79;100.00;98925.44;4789194;29;104211;-73
2021/06/25 09:41:02;;;;;;;3.90;3.60;;;;;;;18.07;100.00;98928.03;4780237;29;103696;-74
2021/06/25 09:43:34;;;;;;;3.92;3.63;;;;;;;17.99;100.00;98933.31;4790878;29;103248;-73
2021/06/25 09:46:04;;;;;;;5.00;4.60;;;;;;;18.15;100.00;98930.78;4783215;29;106404;-73
2021/06/25 09:48:54;;;;;;;7.38;6.68;;;;;;;18.05;99.63;98927.38;4788091;29;113551;-75
2021/06/25 09:51:24;;;;;;;8.25;7.55;;;;;;;17.83;100.00;98934.81;4775022;29;103793;-74
2021/06/25 09:54:06;;;;;;;8.10;7.38;;;;;;;17.79;100.00;98932.59;4775990;29;104636;-73
2021/06/25 09:56:38;;;;;;;9.43;8.50;;;;;;;18.02;99.13;98941.03;4782681;29;105088;-73
2021/06/25 09:59:34;;;;;;;8.68;7.88;;;;;;;17.92;97.98;98933.06;4776123;29;105271;-74
2021/06/25 10:02:28;;;;;;;9.82;8.93;;;;;;;17.73;99.60;98938.53;4766590;29;103888;-73
2021/06/25 10:04:57;;;;;;;9.52;8.68;;;;;;;17.91;100.00;98932.22;4772329;29;103785;-73
2021/06/25 10:07:27;;;;;;;10.00;9.10;;;;;;;18.07;98.72;98936.91;4781119;29;104937;-74
2021/06/25 10:09:57;;;;;;;11.02;9.93;;;;;;;18.27;99.85;98937.59;4782406;29;104821;-74
2021/06/25 10:12:25;;;;;;;9.15;8.25;;;;;;;18.53;96.85;98941.19;4796858;29;103367;-73
2021/06/25 10:14:55;;;;;;;10.88;9.88;;;;;;;18.45;96.71;98936.56;4782977;29;103472;-74
2021/06/25 10:17:28;;;;;;;11.63;10.52;;;;;;;18.84;94.85;98941.56;4775655;29;104040;-74
2021/06/25 10:20:07;;;;;;;11.05;9.95;;;;;;;19.07;94.41;98943.59;4777830;29;104218;-74
2021/06/25 10:22:37;;;;;;;9.82;8.95;;;;;;;19.10;94.49;98940.59;4776568;29;104368;-74
2021/06/25 10:25:08;;;;;;;9.18;8.38;;;;;;;19.29;93.24;98941.34;4784271;29;103506;-76
2021/06/25 10:27:36;;;;;;;10.15;9.25;;;;;;;19.35;92.57;98935.34;4773904;29;103832;-76
2021/06/25 10:30:06;;;;;;;12.55;11.32;;;;;;;19.25;93.99;98940.84;4783469;29;103936;-76
2021/06/25 10:32:38;;;;;;;12.95;11.73;;;;;;;18.66;94.24;98949.66;4777196;29;104777;-76
2021/06/25 10:35:11;;;;;;;12.40;11.30;;;;;;;19.10;93.63;98948.63;4783355;29;107613;-76
2021/06/25 10:37:41;;;;;;;14.13;12.77;;;;;;;18.79;93.81;98950.09;4784148;29;103907;-76
2021/06/25 10:40:24;;;;;;;10.85;9.85;;;;;;;19.15;93.02;98950.81;4771765;29;104128;-76
2021/06/25 10:42:53;;;;;;;9.57;8.20;;;;;;;19.47;91.57;98951.03;4774018;29;104376;-76
2021/06/25 10:45:39;;;;;;;9.68;8.77;;;;;;;19.26;94.92;98955.03;4772210;29;105292;-75
2021/06/25 10:48:08;;;;;;;11.07;10.02;;;;;;;19.20;93.02;98953.03;4763349;29;104555;-75
2021/06/25 10:50:36;;;;;;;10.65;9.75;;;;;;;19.42;91.61;98952.50;4773316;29;103649;-75
2021/06/25 10:53:28;;;;;;;11.70;10.57;;;;;;;19.39;92.40;98948.31;4761216;29;104874;-75
2021/06/25 10:56:05;;;;;;;12.80;11.60;;;;;;;19.30;91.07;98953.75;4754903;29;103098;-75
2021/06/25 10:58:34;;;;;;;13.52;12.20;;;;;;;18.99;90.51;98961.44;4749709;29;103574;-75
2021/06/25 11:01:10;;;;;;;12.07;10.93;;;;;;;19.20;91.65;98959.19;4746730;29;104818;-80
2021/06/25 11:03:43;;;;;;;13.30;12.05;;;;;;;19.23;90.10;98958.06;4760626;29;104826;-78
2021/06/25 11:06:54;;;;;;;10.65;9.75;;;;;;;19.35;93.02;98956.78;4746073;29;103413;-79
2021/06/25 11:09:25;;;;;;;14.60;13.30;;;;;;;19.16;91.01;98957.88;4759687;29;103297;-78
2021/06/25 11:12:16;;;;;;;11.50;10.40;;;;;;;19.70;91.14;98955.81;4756634;29;103911;-76
2021/06/25 11:14:44;;;;;;;11.45;10.35;;;;;;;19.74;89.76;98967.84;4754995;29;103231;-77
2021/06/25 11:17:33;;;;;;;14.45;13.05;;;;;;;19.84;87.72;98958.69;4757065;29;103735;-77
2021/06/25 11:20:17;;;;;;;9.20;8.40;;;;;;;19.85;91.11;98956.84;4746890;29;106060;-77
2021/06/25 11:23:06;;;;;;;13.20;12.00;;;;;;;19.55;90.02;98963.59;4766956;29;104391;-76
2021/06/25 11:25:50;;;;;;;16.60;15.05;;;;;;;19.43;92.25;98955.00;4778036;29;104919;-77
2021/06/25 11:28:40;;;;;;;15.40;13.85;;;;;;;19.60;90.07;98951.41;4757110;29;103815;-81
2021/06/25 11:31:28;;;;;;;16.48;14.88;;;;;;;19.68;90.09;98942.53;4752162;29;103571;-85
2021/06/25 11:34:01;;;;;;;15.88;14.48;;;;;;;19.88;89.92;98943.94;4760443;29;104384;-84
2021/06/25 11:36:32;;;;;;;17.77;16.08;;;;;;;19.83;89.92;98953.50;4752610;29;104019;-80
2021/06/25 11:39:21;;;;;;;16.38;14.77;;;;;;;20.03;88.12;98942.31;4757417;29;103420;-84
2021/06/25 11:41:54;;;;;;;17.50;15.20;;;;;;;20.31;86.18;98952.78;4757616;29;104944;-78
2021/06/25 11:44:25;;;;;;;13.35;12.13;;;;;;;20.48;85.86;98941.91;4757052;29;105292;-76
2021/06/25 11:46:58;;;;;;;15.48;13.85;;;;;;;20.04;87.95;98946.66;4753831;29;104982;-74
2021/06/25 11:49:28;;;;;;;11.88;10.68;;;;;;;20.13;87.84;98948.38;4766445;29;103451;-78
2021/06/25 11:51:57;;;;;;;15.15;13.43;;;;;;;20.12;84.75;98952.06;4756034;29;111297;-76
2021/06/25 11:54:26;;;;;;;11.77;10.73;;;;;;;20.37;85.15;98949.44;4751783;29;104272;-75
2021/06/25 11:56:55;;;;;;;9.73;8.88;;;;;;;20.65;84.58;98942.75;4755835;29;104542;-74
2021/06/25 11:59:23;;;;;;;9.90;9.05;;;;;;;20.65;83.45;98938.22;4749300;29;104824;-76
2021/06/25 12:01:57;;;;;;;9.80;8.90;;;;;;;21.10;83.08;98937.69;4756457;29;106968;-74
2021/06/25 12:04:32;;;;;;;8.63;7.93;;;;;;;21.44;82.03;98928.50;4754790;29;103675;-72
2021/06/25 12:07:01;;;;;;;8.05;7.35;;;;;;;21.69;78.90;98922.84;4756031;29;103644;-72
2021/06/25 12:09:46;;;;;;;7.85;7.15;;;;;;;21.67;79.06;98926.72;4757536;29;103251;-70
2021/06/25 12:12:24;;;;;;;8.15;7.45;;;;;;;21.79;79.29;98923.44;4757710;29;103541;-70
2021/06/25 12:14:55;;;;;;;6.95;6.45;;;;;;;22.13;79.10;98928.50;4768874;29;104856;-71
2021/06/25 12:17:25;;;;;;;8.00;7.30;;;;;;;21.97;77.02;98923.22;4749206;29;103171;-69
2021/06/25 12:20:01;;;;;;;5.65;5.15;;;;;;;22.97;77.17;98922.09;4755894;29;104757;-70
2021/06/25 12:22:29;;;;;;;7.82;7.13;;;;;;;23.12;72.75;98928.34;4757456;29;103924;-70
2021/06/25 12:24:58;;;;;;;8.20;7.50;;;;;;;23.71;72.99;98925.63;4755255;29;105253;-73
2021/06/25 12:27:39;;;;;;;8.07;7.38;;;;;;;23.30;74.00;98926.09;4755831;29;105048;-70
2021/06/25 12:30:14;;;;;;;9.82;9.02;;;;;;;23.14;73.02;98926.28;4754822;29;104565;-74
2021/06/25 12:32:43;;;;;;;9.73;8.82;;;;;;;22.61;73.54;98923.75;4736903;29;105851;-74
2021/06/25 12:35:12;;;;;;;9.00;8.30;;;;;;;21.57;76.21;98931.47;4753567;29;104903;-73
2021/06/25 12:37:49;;;;;;;7.40;6.80;;;;;;;21.40;75.86;98928.00;4765917;29;105182;-73
2021/06/25 12:40:43;;;;;;;8.30;7.47;;;;;;;21.74;77.36;98933.06;4751937;29;104896;-74
2021/06/25 12:43:15;;;;;;;9.25;8.45;;;;;;;21.75;75.36;98932.06;4758632;29;113910;-78
2021/06/25 12:45:46;;;;;;;7.35;6.75;;;;;;;22.07;74.37;98923.81;4749315;29;105025;-75
2021/06/25 12:48:21;;;;;;;6.53;5.93;;;;;;;21.70;75.81;98929.88;4733696;29;104490;-80
2021/06/25 12:50:54;;;;;;;7.20;6.45;;;;;;;21.52;77.42;98933.84;4764926;29;102902;-77
2021/06/25 12:53:27;;;;;;;5.68;5.28;;;;;;;21.72;76.20;98935.09;4751341;29;104045;-84
2021/06/25 12:55:57;;;;;;;6.10;5.40;;;;;;;22.14;74.36;98927.47;4752539;29;103641;-89
2021/06/25 12:58:29;;;;;;;7.47;5.88;;;;;;;22.07;74.36;98934.56;4747660;29;103274;-77
2021/06/25 13:01:03;;;;;;;7.78;7.10;;;;;;;21.75;73.43;98937.44;4755937;29;104266;-79
2021/06/25 13:03:37;;;;;;;8.25;7.55;;;;;;;21.41;76.72;98934.22;4742836;29;112248;-83
2021/06/25 13:06:30;;;;;;;9.65;8.85;;;;;;;21.63;73.30;98930.75;4753465;29;104258;-80
2021/06/25 13:09:00;;;;;;;7.30;6.70;;;;;;;22.03;74.78;98938.66;4753876;29;104897;-82
2021/06/25 13:11:31;;;;;;;6.72;6.10;;;;;;;21.97;74.28;98931.28;4755082;29;103307;-86
2021/06/25 13:14:01;;;;;;;9.25;8.32;;;;;;;20.34;77.84;98939.03;4759334;29;103444;-83
2021/06/25 13:16:29;;;;;;;8.70;7.90;;;;;;;20.64;76.79;98935.69;4753212;29;104274;-85
2021/06/25 13:19:00;;;;;;;8.55;7.03;;;;;;;20.79;76.73;98934.00;4755259;29;103488;-84
2021/06/25 13:22:02;;;;;;;6.43;5.82;;;;;;;21.83;76.50;98929.31;4770194;29;103674;-81
2021/06/25 13:24:45;;;;;;;6.68;6.18;;;;;;;21.97;74.64;98925.91;4761815;29;103370;-82
2021/06/25 13:27:14;;;;;;;7.53;6.95;;;;;;;22.10;72.09;98928.84;4749552;29;106631;-85
2021/06/25 13:29:49;;;;;;;8.15;7.45;;;;;;;22.03;72.25;98930.59;4754260;29;103266;-86
2021/06/25 13:32:19;;;;;;;7.80;7.10;;;;;;;22.39;70.29;98928.97;4757397;29;103281;-81
2021/06/25 13:35:02;;;;;;;8.10;7.40;;;;;;;21.96;72.48;98929.59;4760095;29;104004;-79
2021/06/25 13:37:41;;;;;;;7.78;6.93;;;;;;;22.60;72.08;98938.25;4756546;29;105522;-83
2021/06/25 13:40:12;;;;;;;7.20;6.53;;;;;;;22.83;71.33;98934.50;4743557;29;103473;-78
2021/06/25 13:42:40;;;;;;;9.73;8.93;;;;;;;21.94;71.21;98934.34;4755179;29;104456;-74
2021/06/25 13:45:22;;;;;;;9.20;8.30;;;;;;;22.17;71.52;98932.50;4755393;29;104580;-76
2021/06/25 13:47:53;;;;;;;9.07;8.27;;;;;;;21.85;73.64;98929.97;4755622;29;104460;-79
2021/06/25 13:50:22;;;;;;;10.10;9.20;;;;;;;21.94;71.70;98935.19;4739086;29;103597;-79
2021/06/25 13:52:53;;;;;;;9.70;8.80;;;;;;;22.18;70.55;98934.16;4744089;29;103851;-75
2021/06/25 13:55:24;;;;;;;9.25;8.45;;;;;;;22.06;71.75;98935.63;4753365;29;104722;-75
2021/06/25 13:57:54;;;;;;;10.00;9.00;;;;;;;21.60;71.42;98937.31;4764221;29;105765;-75
2021/06/25 14:00:33;;;;;;;9.15;8.10;;;;;;;21.84;73.62;98928.28;4756725;29;103744;-83
2021/06/25 14:03:03;;;;;;;8.63;7.82;;;;;;;21.93;71.49;98924.56;4743190;29;104660;-84
2021/06/25 14:05:32;;;;;;;9.40;8.43;;;;;;;22.43;70.53;98926.75;4757885;29;104216;-83
2021/06/25 14:08:01;;;;;;;9.70;8.75;;;;;;;22.38;69.54;98924.59;4759523;29;104808;-80
2021/06/25 14:10:31;;;;;;;7.25;6.55;;;;;;;22.94;68.93;98920.59;4764944;29;103911;-83
2021/06/25 14:13:01;;;;;;;7.60;7.00;;;;;;;22.90;67.63;98929.25;4763302;29;103821;-80
2021/06/25 14:15:46;;;;;;;6.85;6.22;;;;;;;22.87;67.21;98933.13;4759922;29;104543;-84
2021/06/25 14:18:17;;;;;;;7.95;7.20;;;;;;;22.95;66.92;98932.22;4757059;29;104820;-83
2021/06/25 14:20:46;;;;;;;6.90;6.30;;;;;;;22.81;67.99;98925.78;4755075;29;104612;-82
2021/06/25 14:23:15;;;;;;;7.28;6.60;;;;;;;22.88;68.50;98926.72;4756934;29;103099;-81
2021/06/25 14:25:45;;;;;;;8.05;7.35;;;;;;;22.98;67.92;98918.38;4757277;29;106137;-83
2021/06/25 14:28:23;;;;;;;8.27;7.47;;;;;;;22.81;67.88;98914.16;4752818;29;103340;-82
2021/06/25 14:30:53;;;;;;;6.70;6.10;;;;;;;23.01;67.58;98915.31;4754572;29;104868;-84
2021/06/25 14:33:22;;;;;;;7.90;7.10;;;;;;;23.15;67.57;98914.50;4759554;29;104735;-84
2021/06/25 14:35:51;;;;;;;7.75;7.03;;;;;;;23.59;66.30;98912.63;4757306;29;103803;-81
2021/06/25 14:38:20;;;;;;;7.32;6.63;;;;;;;23.81;66.79;98912.69;4757480;29;104498;-84
2021/06/25 14:40:48;;;;;;;6.60;6.10;;;;;;;23.94;67.27;98908.28;4756799;29;103846;-81
2021/06/25 14:43:17;;;;;;;7.32;6.78;;;;;;;23.68;65.57;98918.75;4759418;29;104929;-79
2021/06/25 14:45:45;;;;;;;7.60;6.90;;;;;;;22.81;64.00;98911.47;4756958;29;104345;-81
2021/06/25 14:48:14;;;;;;;8.30;7.47;;;;;;;22.72;67.08;98915.25;4758206;29;104221;-78
2021/06/25 14:50:42;;;;;;;7.07;6.38;;;;;;;23.07;67.08;98917.28;4763399;29;103044;-80
2021/06/25 14:53:11;;;;;;;7.32;6.63;;;;;;;22.71;67.07;98908.22;4788246;29;103334;-82
2021/06/25 14:55:39;;;;;;;7.50;6.80;;;;;;;22.86;66.68;98911.75;4775888;29;104504;-80
2021/06/25 14:58:08;;;;;;;6.32;5.82;;;;;;;23.41;65.07;98906.78;4763172;29;103362;-80
2021/06/25 15:00:39;;;;;;;6.28;5.80;;;;;;;23.57;65.46;98903.91;4770105;29;107135;-82
2021/06/25 15:03:07;;;;;;;4.78;4.38;;;;;;;23.60;64.70;98895.44;4762343;29;103262;-84
2021/06/25 15:05:37;;;;;;;7.35;6.75;;;;;;;22.49;66.77;98908.03;4760639;29;104015;-85
2021/06/25 15:08:06;;;;;;;8.02;7.22;;;;;;;21.95;66.83;98895.66;4757795;29;104665;-85
2021/06/25 15:10:35;;;;;;;7.43;6.82;;;;;;;22.15;66.82;98890.63;4757833;29;103734;-84
2021/06/25 15:13:05;;;;;;;7.57;6.88;;;;;;;22.27;67.35;98895.44;4757656;29;104560;-81
2021/06/25 15:15:33;;;;;;;6.80;6.20;;;;;;;22.60;66.79;98900.56;4756486;29;104188;-86
2021/06/25 15:18:02;;;;;;;7.70;6.63;;;;;;;21.63;67.87;98895.81;4755355;29;104932;-82
2021/06/25 15:20:30;;;;;;;6.75;6.25;;;;;;;22.39;66.77;98899.38;4749741;29;103272;-89
2021/06/25 15:23:00;;;;;;;5.40;5.00;;;;;;;22.45;64.79;98895.13;4760686;29;103139;-78
2021/06/25 15:25:28;;;;;;;5.30;4.80;;;;;;;22.38;65.06;98892.31;4765869;29;103921;-76
2021/06/25 15:27:57;;;;;;;6.45;5.85;;;;;;;22.39;65.54;98894.00;4758815;29;113954;-76
2021/06/25 15:30:25;;;;;;;6.18;5.68;;;;;;;22.17;67.25;98889.47;4745226;29;104218;-76
2021/06/25 15:32:53;;;;;;;6.97;6.38;;;;;;;22.39;65.16;98880.53;4761236;29;104098;-77
2021/06/25 15:35:21;;;;;;;7.13;6.47;;;;;;;22.82;64.11;98872.75;4756972;29;106162;-75
2021/06/25 15:37:50;;;;;;;5.35;4.95;;;;;;;22.72;65.51;98873.00;4758556;29;103728;-75
2021/06/25 15:40:19;;;;;;;6.90;6.15;;;;;;;23.07;64.63;98860.69;4758448;29;103132;-75
2021/06/25 15:42:47;;;;;;;5.55;5.10;;;;;;;23.32;64.05;98864.78;4758203;29;104043;-76
2021/06/25 15:45:19;;;;;;;8.23;6.68;;;;;;;23.08;64.92;98856.97;4749983;29;105033;-75
2021/06/25 15:47:47;;;;;;;6.75;6.15;;;;;;;23.03;64.56;98859.38;4778070;29;103704;-75
2021/06/25 15:50:15;;;;;;;5.20;4.70;;;;;;;23.01;64.19;98866.81;4759014;29;104650;-76
2021/06/25 15:52:43;;;;;;;4.20;3.80;;;;;;;23.23;63.19;98865.03;4755544;29;103317;-76
2021/06/25 15:55:12;;;;;;;4.22;3.92;;;;;;;23.06;63.84;98859.00;4755767;29;103626;-76
2021/06/25 15:57:42;;;;;;;4.53;4.13;;;;;;;22.86;62.10;98865.97;4757851;29;105340;-75
2021/06/25 16:00:11;;;;;;;5.13;4.63;;;;;;;22.14;65.30;98867.44;4755581;29;104207;-76
2021/06/25 16:02:39;;;;;;;6.50;5.90;;;;;;;22.10;66.56;98861.59;4754414;29;103286;-76
2021/06/25 16:05:09;;;;;;;6.28;5.68;;;;;;;22.29;66.97;98855.72;4755937;29;103955;-75
2021/06/25 16:07:39;;;;;;;5.13;4.72;;;;;;;22.74;65.70;98859.34;4756659;29;103729;-77
2021/06/25 16:10:10;;;;;;;7.00;6.38;;;;;;;21.94;67.23;98859.88;4756465;29;104180;-75
2021/06/25 16:12:39;;;;;;;6.68;6.07;;;;;;;22.28;65.63;98859.44;4775328;29;103069;-76
2021/06/25 16:15:10;;;;;;;6.78;6.20;;;;;;;21.92;66.24;98863.75;4755909;29;104547;-75
2021/06/25 16:17:38;;;;;;;6.10;5.60;;;;;;;22.33;65.00;98851.66;4760653;29;103603;-75
2021/06/25 16:20:08;;;;;;;7.43;6.00;;;;;;;22.10;63.74;98855.38;4758497;29;103404;-75
2021/06/25 16:22:37;;;;;;;6.53;6.03;;;;;;;21.94;65.51;98848.25;4757762;29;104617;-76
2021/06/25 16:25:07;;;;;;;6.07;5.55;;;;;;;22.37;65.04;98844.88;4756170;29;103474;-76
2021/06/25 16:27:35;;;;;;;5.60;4.95;;;;;;;21.99;65.89;98853.94;4757152;29;105195;-76
2021/06/25 16:30:04;;;;;;;4.63;4.28;;;;;;;22.35;65.73;98849.59;4760829;29;104992;-76
2021/06/25 16:32:34;;;;;;;4.53;4.18;;;;;;;22.89;65.08;98841.34;4759293;29;104371;-75
2021/06/25 16:35:02;;;;;;;6.20;5.65;;;;;;;22.62;64.85;98850.03;4748028;29;104898;-75
2021/06/25 16:37:30;;;;;;;7.50;6.90;;;;;;;22.37;65.48;98847.56;4784225;29;103681;-75
2021/06/25 16:39:58;;;;;;;7.85;7.13;;;;;;;22.02;66.18;98852.75;4757183;29;103126;-75
2021/06/25 16:42:26;;;;;;;8.27;7.57;;;;;;;22.53;65.96;98852.81;4766536;29;103383;-75